Time;durP1;ratioP1;P1;durP2;ratioP2;P2;SDS_P1;SDS_P2;PMS_P1;PMS_P2;Temp;Humidity;BMP_temperature;BMP_pressure;BME280_temperature;BME280_humidity;BME280_pressure;Samples;Min_cycle;Max_cycle;Signal;HPM_P1;HPM_P2
2023/05/28 00:01:12;;;;;;;9.23;5.47;;;13.60;99.90;;;;;;5111342;27;20184;-30
2023/05/28 00:03:38;;;;;;;9.07;6.03;;;13.60;99.90;;;;;;5104176;27;20207;-29
2023/05/28 00:06:05;;;;;;;10.50;6.10;;;13.50;99.90;;;;;;5112985;27;20201;-29
2023/05/28 00:08:30;;;;;;;8.70;5.73;;;13.40;99.90;;;;;;5100792;27;20198;-32
2023/05/28 00:10:59;;;;;;;10.60;6.07;;;13.40;99.90;;;;;;5101287;28;20179;-32
2023/05/28 00:13:29;;;;;;;8.93;5.90;;;13.40;99.90;;;;;;5119745;27;20222;-32
2023/05/28 00:15:56;;;;;;;8.23;5.97;;;13.30;99.90;;;;;;5117860;27;20215;-32
2023/05/28 00:18:23;;;;;;;12.87;6.07;;;13.30;99.90;;;;;;5099897;28;20188;-32
2023/05/28 00:20:50;;;;;;;9.00;5.60;;;13.20;99.90;;;;;;5093025;27;20197;-32
2023/05/28 00:23:16;;;;;;;7.50;5.70;;;13.20;99.90;;;;;;5121340;27;20210;-31
2023/05/28 00:25:42;;;;;;;8.57;6.03;;;13.20;99.90;;;;;;5092640;27;20207;-32
2023/05/28 00:28:08;;;;;;;9.27;6.13;;;13.20;99.90;;;;;;5119654;27;20198;-32
2023/05/28 00:30:34;;;;;;;9.87;5.87;;;13.20;99.90;;;;;;5089553;27;20210;-32
2023/05/28 00:33:02;;;;;;;9.87;6.70;;;13.20;99.90;;;;;;5091928;28;20194;-32
2023/05/28 00:35:28;;;;;;;8.43;6.30;;;13.10;99.90;;;;;;5121187;27;20256;-33
2023/05/28 00:37:53;;;;;;;7.10;5.37;;;13.10;99.90;;;;;;5093326;28;20203;-32
2023/05/28 00:40:20;;;;;;;7.90;5.53;;;13.00;99.90;;;;;;5100067;28;20188;-32
2023/05/28 00:42:46;;;;;;;12.33;5.80;;;13.00;99.90;;;;;;5092715;27;20186;-32
2023/05/28 00:45:12;;;;;;;9.30;5.83;;;12.90;99.90;;;;;;5089763;27;20213;-32
2023/05/28 00:47:40;;;;;;;10.80;6.00;;;12.90;99.90;;;;;;5094531;27;20260;-32
2023/05/28 00:50:08;;;;;;;8.73;5.67;;;12.90;99.90;;;;;;5109982;27;20191;-32
2023/05/28 00:52:36;;;;;;;6.93;5.73;;;12.80;99.90;;;;;;5091738;27;20218;-33
2023/05/28 00:55:05;;;;;;;7.30;5.53;;;12.80;99.90;;;;;;5119084;27;20210;-32
2023/05/28 00:57:31;;;;;;;7.43;5.00;;;12.70;99.90;;;;;;5110857;27;20209;-32
2023/05/28 01:00:05;;;;;;;9.07;5.60;;;12.70;99.90;;;;;;5101053;28;20179;-31
2023/05/28 01:02:31;;;;;;;7.70;5.53;;;12.60;99.90;;;;;;5112983;27;20184;-32
2023/05/28 01:04:57;;;;;;;9.90;5.40;;;12.60;99.90;;;;;;5092181;28;20202;-32
2023/05/28 01:07:24;;;;;;;10.23;5.27;;;12.50;99.90;;;;;;5086560;27;20277;-32
2023/05/28 01:09:50;;;;;;;8.77;5.83;;;12.50;99.90;;;;;;5097309;27;20234;-32
2023/05/28 01:12:17;;;;;;;10.17;5.63;;;12.50;99.90;;;;;;5096573;28;20258;-31
2023/05/28 01:14:44;;;;;;;9.10;5.17;;;12.50;99.90;;;;;;5098827;27;20236;-33
2023/05/28 01:17:10;;;;;;;10.07;5.87;;;12.40;99.90;;;;;;5104162;28;20569;-33
2023/05/28 01:19:36;;;;;;;9.23;5.23;;;12.50;99.90;;;;;;5098760;27;20187;-32
2023/05/28 01:22:05;;;;;;;7.50;5.67;;;12.50;99.90;;;;;;5116696;27;20182;-32
2023/05/28 01:24:39;;;;;;;9.73;6.37;;;12.40;99.90;;;;;;5116201;27;20202;-32
2023/05/28 01:27:06;;;;;;;9.10;5.97;;;12.50;99.90;;;;;;5109410;27;20179;-32
2023/05/28 01:29:32;;;;;;;9.97;6.40;;;12.40;99.90;;;;;;5096530;28;20225;-32
2023/05/28 01:31:58;;;;;;;8.80;6.03;;;12.30;99.90;;;;;;5095922;28;20182;-32
2023/05/28 01:34:24;;;;;;;8.53;6.13;;;12.30;99.90;;;;;;5100522;27;20722;-31
2023/05/28 01:37:01;;;;;;;10.67;6.33;;;12.20;99.90;;;;;;5099940;27;20232;-31
2023/05/28 01:39:35;;;;;;;10.10;5.77;;;12.20;99.90;;;;;;5108979;28;20182;-31
2023/05/28 01:42:05;;;;;;;10.47;6.53;;;12.20;99.90;;;;;;5104307;28;20190;-32
2023/05/28 01:44:31;;;;;;;8.27;6.30;;;12.10;99.90;;;;;;5096479;27;20195;-32
2023/05/28 01:46:58;;;;;;;9.50;6.37;;;12.10;99.90;;;;;;5108580;27;20271;-33
2023/05/28 01:49:24;;;;;;;9.10;6.30;;;12.10;99.90;;;;;;5088965;27;20184;-32
2023/05/28 01:51:51;;;;;;;13.87;6.63;;;12.10;99.90;;;;;;5115926;27;20184;-31
2023/05/28 01:54:18;;;;;;;11.50;6.60;;;12.10;99.90;;;;;;5133671;27;20213;-32
2023/05/28 01:56:44;;;;;;;10.10;6.43;;;12.10;99.90;;;;;;5091144;27;20217;-31
2023/05/28 01:59:10;;;;;;;8.30;6.07;;;12.10;99.90;;;;;;5102424;28;20186;-32
2023/05/28 02:01:36;;;;;;;11.63;6.40;;;12.00;99.90;;;;;;5105288;27;20180;-32
2023/05/28 02:04:05;;;;;;;8.73;6.37;;;12.00;99.90;;;;;;5107330;27;20217;-33
2023/05/28 02:06:33;;;;;;;9.90;6.63;;;12.00;99.90;;;;;;5126542;27;20183;-33
2023/05/28 02:08:59;;;;;;;8.30;6.00;;;11.90;99.90;;;;;;5116703;27;20190;-33
2023/05/28 02:11:25;;;;;;;9.50;6.23;;;11.90;99.90;;;;;;5107207;27;20184;-32
2023/05/28 02:13:55;;;;;;;11.97;5.40;;;11.80;99.90;;;;;;5102861;28;20230;-32
2023/05/28 02:16:22;;;;;;;7.77;6.20;;;11.80;99.90;;;;;;5090875;27;20272;-32
2023/05/28 02:18:52;;;;;;;8.43;5.53;;;11.70;99.90;;;;;;5111349;27;20184;-32
2023/05/28 02:21:21;;;;;;;8.67;5.80;;;11.60;99.90;;;;;;5129550;27;20176;-32
2023/05/28 02:23:48;;;;;;;8.20;5.47;;;11.60;99.90;;;;;;5104708;27;20326;-32
2023/05/28 02:26:17;;;;;;;11.50;5.57;;;11.50;99.90;;;;;;5078204;28;20190;-32
2023/05/28 02:28:43;;;;;;;8.93;5.37;;;11.50;99.90;;;;;;5095646;27;20202;-32
2023/05/28 02:31:12;;;;;;;10.73;5.60;;;11.50;99.90;;;;;;5105282;28;20189;-32
2023/05/28 02:33:42;;;;;;;9.40;5.33;;;11.50;99.90;;;;;;5100446;27;20211;-32
2023/05/28 02:36:11;;;;;;;10.70;6.00;;;11.50;99.90;;;;;;5114008;28;20201;-32
2023/05/28 02:38:38;;;;;;;10.20;6.00;;;11.40;99.90;;;;;;5088165;27;20177;-31
2023/05/28 02:41:04;;;;;;;8.73;6.10;;;11.40;99.90;;;;;;5112966;27;20191;-32
2023/05/28 02:43:31;;;;;;;8.40;6.20;;;11.40;99.90;;;;;;5098673;27;20235;-32
2023/05/28 02:45:57;;;;;;;10.10;6.37;;;11.40;99.90;;;;;;5098981;27;20168;-32
2023/05/28 02:48:25;;;;;;;11.10;6.93;;;11.40;99.90;;;;;;5099144;27;20208;-32
2023/05/28 02:50:52;;;;;;;9.67;5.90;;;11.40;99.90;;;;;;5098935;27;20221;-32
2023/05/28 02:53:37;;;;;;;9.30;5.97;;;11.40;99.90;;;;;;5140086;27;20213;-32
2023/05/28 02:56:04;;;;;;;9.43;5.90;;;11.40;99.90;;;;;;5108565;27;20270;-32
2023/05/28 02:58:32;;;;;;;9.53;5.77;;;11.40;99.90;;;;;;5115330;27;20217;-32
2023/05/28 03:00:58;;;;;;;7.27;5.50;;;11.40;99.90;;;;;;5098273;27;20178;-32
2023/05/28 03:03:25;;;;;;;9.57;5.57;;;11.20;99.90;;;;;;5115487;27;20279;-32
2023/05/28 03:05:52;;;;;;;10.77;6.00;;;11.20;99.90;;;;;;5125130;27;20216;-32
2023/05/28 03:08:20;;;;;;;8.87;6.00;;;11.20;99.90;;;;;;5106540;27;20191;-32
2023/05/28 03:10:45;;;;;;;8.47;5.53;;;11.10;99.90;;;;;;5112438;27;20179;-33
2023/05/28 03:13:11;;;;;;;10.27;5.83;;;11.10;99.90;;;;;;5093641;28;20233;-31
2023/05/28 03:15:37;;;;;;;8.53;6.17;;;11.10;99.90;;;;;;5094692;27;20203;-32
2023/05/28 03:18:06;;;;;;;7.40;5.23;;;11.00;99.90;;;;;;5096436;27;20175;-32
2023/05/28 03:20:35;;;;;;;8.00;5.23;;;11.10;99.90;;;;;;5095892;27;20661;-32
2023/05/28 03:23:02;;;;;;;7.67;5.07;;;11.00;99.90;;;;;;5096080;27;20175;-32
2023/05/28 03:25:31;;;;;;;7.37;5.17;;;11.00;99.90;;;;;;5092517;28;20188;-32
2023/05/28 03:27:58;;;;;;;9.50;5.73;;;11.00;99.90;;;;;;5111336;27;20186;-32
2023/05/28 03:30:34;;;;;;;8.40;5.70;;;11.00;99.90;;;;;;5099025;27;20182;-32
2023/05/28 03:33:00;;;;;;;10.33;6.30;;;11.00;99.90;;;;;;5105865;27;20175;-32
2023/05/28 03:35:26;;;;;;;10.33;6.30;;;10.90;99.90;;;;;;5116551;28;20273;-32
2023/05/28 03:37:52;;;;;;;10.27;6.37;;;10.90;99.90;;;;;;5113581;27;20179;-31
2023/05/28 03:40:18;;;;;;;10.27;6.47;;;10.80;99.90;;;;;;5133739;27;20203;-32
2023/05/28 03:42:44;;;;;;;7.50;6.10;;;10.80;99.90;;;;;;5100747;27;20168;-32
2023/05/28 03:45:10;;;;;;;9.40;6.27;;;10.70;99.90;;;;;;5119720;27;20199;-32
2023/05/28 03:47:36;;;;;;;10.07;6.00;;;10.70;99.90;;;;;;5099380;27;20176;-32
2023/05/28 03:50:04;;;;;;;8.70;5.97;;;10.70;99.90;;;;;;5121635;27;20199;-32
2023/05/28 03:52:30;;;;;;;8.10;6.30;;;10.60;99.90;;;;;;5091975;28;20176;-32
2023/05/28 03:54:56;;;;;;;8.43;5.57;;;10.70;99.90;;;;;;5091868;27;20258;-32
2023/05/28 03:57:21;;;;;;;10.47;6.40;;;10.70;99.90;;;;;;5112758;27;20262;-32
2023/05/28 03:59:47;;;;;;;8.83;5.87;;;10.70;99.90;;;;;;5091755;27;20190;-32
2023/05/28 04:02:13;;;;;;;8.07;5.70;;;10.70;99.90;;;;;;5094928;27;20179;-31
2023/05/28 04:04:39;;;;;;;10.67;6.07;;;10.70;99.90;;;;;;5114616;27;20206;-32
2023/05/28 04:07:05;;;;;;;7.80;6.07;;;10.70;99.90;;;;;;5130607;27;20186;-31
2023/05/28 04:09:31;;;;;;;7.53;5.83;;;10.70;99.90;;;;;;5096574;27;20179;-32
2023/05/28 04:11:57;;;;;;;10.97;6.00;;;10.70;99.90;;;;;;5096026;27;20225;-32
2023/05/28 04:14:23;;;;;;;9.73;5.90;;;10.70;99.90;;;;;;5113423;27;20321;-32
2023/05/28 04:16:49;;;;;;;8.70;5.57;;;10.70;99.90;;;;;;5102920;27;20207;-31
2023/05/28 04:19:15;;;;;;;9.20;5.60;;;10.80;99.90;;;;;;5126033;27;20186;-32
2023/05/28 04:21:41;;;;;;;7.83;5.80;;;10.80;99.90;;;;;;5126405;27;20719;-32
2023/05/28 04:24:07;;;;;;;9.50;5.60;;;10.80;99.90;;;;;;5109541;28;20200;-31
2023/05/28 04:26:32;;;;;;;15.87;6.80;;;10.80;99.90;;;;;;5089171;28;20201;-32
2023/05/28 04:28:59;;;;;;;8.33;5.63;;;10.90;99.90;;;;;;5095725;27;20176;-32
2023/05/28 04:31:28;;;;;;;8.23;5.73;;;10.90;99.90;;;;;;5096388;27;20720;-32
2023/05/28 04:33:54;;;;;;;8.37;5.47;;;11.00;99.90;;;;;;5113041;27;20199;-32
2023/05/28 04:36:20;;;;;;;9.87;5.53;;;11.10;99.90;;;;;;5113135;27;20210;-32
2023/05/28 04:38:46;;;;;;;11.97;5.73;;;11.10;99.90;;;;;;5090180;27;20178;-32
2023/05/28 04:41:14;;;;;;;8.47;5.17;;;11.20;99.90;;;;;;5093958;27;20180;-32
2023/05/28 04:43:41;;;;;;;9.53;5.90;;;11.20;99.90;;;;;;5096243;27;20196;-32
2023/05/28 04:46:08;;;;;;;11.00;5.47;;;11.30;99.90;;;;;;5109042;27;20184;-31
2023/05/28 04:48:37;;;;;;;9.17;5.70;;;11.30;99.90;;;;;;5112891;27;20182;-31
2023/05/28 04:51:05;;;;;;;7.93;4.93;;;11.30;99.90;;;;;;5109035;28;20302;-32
2023/05/28 04:53:31;;;;;;;10.13;6.10;;;11.40;99.90;;;;;;5103757;27;20211;-31
2023/05/28 04:56:00;;;;;;;8.70;5.70;;;11.50;99.90;;;;;;5109098;28;20203;-32
2023/05/28 04:58:25;;;;;;;11.37;5.97;;;11.60;99.90;;;;;;5106079;28;20253;-32
2023/05/28 05:00:55;;;;;;;11.23;5.63;;;11.70;99.90;;;;;;5092514;27;20278;-32
2023/05/28 05:03:22;;;;;;;9.10;6.00;;;11.60;99.90;;;;;;5111400;28;20286;-32
2023/05/28 05:05:48;;;;;;;9.80;6.90;;;11.60;99.90;;;;;;5110746;27;20258;-32
2023/05/28 05:08:15;;;;;;;11.17;6.60;;;11.70;99.90;;;;;;5110608;28;20194;-32
2023/05/28 05:10:43;;;;;;;8.67;6.77;;;11.70;99.90;;;;;;5112047;27;20176;-32
2023/05/28 05:13:09;;;;;;;9.03;6.67;;;11.70;99.90;;;;;;5092353;28;20203;-32
2023/05/28 05:15:35;;;;;;;10.83;6.70;;;11.80;99.90;;;;;;5094555;27;20203;-33
2023/05/28 05:18:01;;;;;;;10.83;6.70;;;12.00;99.90;;;;;;5112340;28;20184;-32
2023/05/28 05:20:27;;;;;;;10.60;6.30;;;12.00;99.90;;;;;;5112738;28;20180;-33
2023/05/28 05:22:54;;;;;;;7.77;6.00;;;12.00;99.90;;;;;;5102846;27;20673;-33
2023/05/28 05:25:20;;;;;;;9.80;6.03;;;12.10;99.90;;;;;;5107090;28;20180;-32
2023/05/28 05:27:51;;;;;;;10.97;6.53;;;12.20;99.90;;;;;;5094034;27;20686;-32
2023/05/28 05:30:17;;;;;;;9.87;6.30;;;12.20;99.90;;;;;;5092066;28;20190;-33
2023/05/28 05:32:44;;;;;;;9.17;5.97;;;12.30;99.90;;;;;;5109494;27;20182;-31
2023/05/28 05:35:11;;;;;;;8.83;5.53;;;12.40;99.90;;;;;;5111927;27;20294;-32
2023/05/28 05:37:56;;;;;;;10.97;5.90;;;12.50;99.90;;;;;;5119957;27;20187;-32
2023/05/28 05:40:22;;;;;;;6.87;5.67;;;12.50;99.90;;;;;;5111645;28;20188;-33
2023/05/28 05:42:55;;;;;;;7.80;5.50;;;12.60;99.90;;;;;;5127862;27;20273;-32
2023/05/28 05:45:22;;;;;;;8.63;5.53;;;12.70;99.90;;;;;;5094261;28;20330;-32
2023/05/28 05:47:49;;;;;;;9.03;5.30;;;12.90;99.90;;;;;;5089483;27;20181;-33
2023/05/28 05:50:15;;;;;;;10.27;6.33;;;13.00;99.90;;;;;;5095829;28;20178;-32
2023/05/28 05:52:43;;;;;;;11.37;6.07;;;13.10;99.90;;;;;;5095675;27;20182;-32
2023/05/28 05:55:09;;;;;;;7.07;5.83;;;13.30;99.90;;;;;;5116313;27;20202;-32
2023/05/28 05:57:36;;;;;;;9.03;5.93;;;13.40;99.90;;;;;;5105185;27;20191;-32
2023/05/28 06:00:08;;;;;;;9.03;5.87;;;13.50;99.90;;;;;;5096500;28;20259;-33
2023/05/28 06:02:39;;;;;;;7.97;6.10;;;13.60;99.90;;;;;;5106429;27;20190;-32
2023/05/28 06:05:21;;;;;;;8.33;5.73;;;13.70;99.90;;;;;;5102947;28;20271;-33
2023/05/28 06:08:13;;;;;;;11.27;6.57;;;13.90;99.90;;;;;;5103839;27;20191;-32
2023/05/28 06:10:48;;;;;;;11.30;6.67;;;14.00;99.90;;;;;;5116069;27;20174;-32
2023/05/28 06:13:14;;;;;;;13.20;6.40;;;14.00;99.90;;;;;;5099549;27;20240;-32
2023/05/28 06:15:41;;;;;;;11.67;6.20;;;14.20;99.90;;;;;;5081758;27;20207;-33
2023/05/28 06:18:07;;;;;;;9.87;6.20;;;14.40;99.90;;;;;;5097173;28;20204;-32
2023/05/28 06:20:34;;;;;;;7.60;5.53;;;14.60;99.90;;;;;;5107558;27;20180;-33
2023/05/28 06:23:01;;;;;;;10.73;6.13;;;14.80;99.90;;;;;;5126272;27;20187;-32
2023/05/28 06:25:28;;;;;;;8.70;6.07;;;14.90;99.90;;;;;;5090468;27;20175;-33
2023/05/28 06:27:54;;;;;;;9.90;5.70;;;15.00;99.90;;;;;;5123208;27;20228;-32
2023/05/28 06:30:20;;;;;;;8.87;6.00;;;15.20;99.90;;;;;;5097944;27;20199;-33
2023/05/28 06:32:46;;;;;;;8.13;5.57;;;15.30;99.90;;;;;;5090562;27;20171;-30
2023/05/28 06:35:12;;;;;;;7.50;5.87;;;15.40;99.90;;;;;;5090558;27;20199;-31
2023/05/28 06:37:38;;;;;;;7.47;5.30;;;15.60;99.90;;;;;;5097081;27;20176;-32
2023/05/28 06:40:06;;;;;;;11.10;6.20;;;15.70;99.90;;;;;;5091387;27;20188;-32
2023/05/28 06:42:33;;;;;;;8.47;5.33;;;15.80;99.90;;;;;;5107634;27;20167;-32
2023/05/28 06:45:18;;;;;;;10.40;5.90;;;15.90;99.90;;;;;;5107394;27;20247;-34
2023/05/28 06:47:45;;;;;;;11.67;5.67;;;16.10;99.90;;;;;;5095161;27;20188;-33
2023/05/28 06:50:11;;;;;;;11.67;6.17;;;16.30;99.90;;;;;;5097462;27;20650;-33
2023/05/28 06:52:37;;;;;;;9.70;5.53;;;16.40;99.90;;;;;;5099202;27;20241;-33
2023/05/28 06:55:05;;;;;;;9.27;5.53;;;16.50;99.90;;;;;;5108479;27;20203;-33
2023/05/28 06:57:36;;;;;;;10.63;5.90;;;16.70;99.90;;;;;;5095031;28;20175;-32
2023/05/28 07:00:28;;;;;;;10.23;5.43;;;16.70;99.90;;;;;;5092798;27;20182;-33
2023/05/28 07:03:26;;;;;;;9.83;5.50;;;17.00;99.90;;;;;;5104942;27;20286;-33
2023/05/28 07:06:18;;;;;;;10.38;5.93;;;17.20;99.90;;;;;;5098258;27;20187;-33
2023/05/28 07:08:44;;;;;;;9.50;5.93;;;17.50;99.90;;;;;;5098050;27;20179;-33
2023/05/28 07:11:12;;;;;;;10.15;5.57;;;17.60;99.90;;;;;;5093929;28;20187;-33
2023/05/28 07:13:39;;;;;;;8.05;5.15;;;17.80;99.90;;;;;;5106344;27;20233;-33
2023/05/28 07:16:07;;;;;;;8.48;5.45;;;18.00;99.90;;;;;;5108806;27;20226;-33
2023/05/28 07:18:33;;;;;;;10.20;5.85;;;18.10;99.90;;;;;;5106774;27;20180;-33
2023/05/28 07:20:59;;;;;;;8.77;5.88;;;18.20;99.90;;;;;;5106342;27;20182;-33
2023/05/28 07:23:33;;;;;;;8.70;5.60;;;18.30;99.90;;;;;;5101124;28;20196;-32
2023/05/28 07:25:59;;;;;;;10.27;5.53;;;18.50;99.90;;;;;;5094082;27;20171;-33
2023/05/28 07:28:25;;;;;;;9.93;5.05;;;18.60;99.90;;;;;;5098993;28;20183;-33
2023/05/28 07:30:51;;;;;;;10.20;5.75;;;18.80;99.90;;;;;;5101502;27;20183;-33
2023/05/28 07:33:17;;;;;;;10.32;5.50;;;19.00;99.90;;;;;;5106711;27;20203;-33
2023/05/28 07:35:44;;;;;;;13.82;5.75;;;19.10;99.90;;;;;;5103443;27;20239;-32
2023/05/28 07:38:12;;;;;;;9.40;5.20;;;19.00;99.90;;;;;;5096829;27;20185;-32
2023/05/28 07:40:38;;;;;;;11.23;5.10;;;19.00;99.90;;;;;;5129572;27;20192;-32
2023/05/28 07:43:16;;;;;;;8.05;4.85;;;19.20;99.90;;;;;;5099211;28;20204;-32
2023/05/28 07:45:42;;;;;;;9.38;5.43;;;19.40;99.90;;;;;;5102912;27;20219;-33
2023/05/28 07:48:08;;;;;;;8.05;4.72;;;19.50;99.90;;;;;;5104572;27;20257;-33
2023/05/28 07:50:49;;;;;;;6.82;4.93;;;19.60;99.90;;;;;;5102366;27;20182;-33
2023/05/28 07:53:32;;;;;;;10.52;5.90;;;19.70;99.90;;;;;;5097965;27;20329;-33
2023/05/28 07:55:58;;;;;;;12.93;5.18;;;19.80;99.90;;;;;;5102779;27;20216;-33
2023/05/28 07:58:24;;;;;;;8.43;4.43;;;19.90;99.90;;;;;;5103442;28;20215;-33
2023/05/28 08:00:50;;;;;;;5.75;4.32;;;20.20;99.90;;;;;;5090844;28;20186;-33
2023/05/28 08:03:22;;;;;;;7.32;4.88;;;20.30;99.90;;;;;;5123687;27;20256;-33
2023/05/28 08:05:48;;;;;;;8.07;4.57;;;20.40;99.90;;;;;;5089838;27;20218;-33
2023/05/28 08:08:14;;;;;;;7.80;4.68;;;20.30;99.90;;;;;;5094992;27;20222;-34
2023/05/28 08:10:40;;;;;;;11.20;4.70;;;20.50;99.90;;;;;;5099088;27;20175;-33
2023/05/28 08:13:06;;;;;;;7.00;4.80;;;20.70;99.90;;;;;;5077662;28;20203;-33
2023/05/28 08:15:34;;;;;;;11.88;5.50;;;20.90;99.90;;;;;;5098730;27;20227;-34
2023/05/28 08:18:00;;;;;;;9.07;5.20;;;21.00;99.90;;;;;;5078012;28;20183;-31
2023/05/28 08:20:26;;;;;;;7.85;4.53;;;21.10;99.90;;;;;;5105473;27;20175;-32
2023/05/28 08:23:03;;;;;;;9.05;4.63;;;21.20;99.90;;;;;;5104430;27;20183;-31
2023/05/28 08:25:30;;;;;;;7.65;4.47;;;21.50;99.90;;;;;;5094864;27;20179;-31
2023/05/28 08:28:09;;;;;;;8.70;4.40;;;21.60;99.90;;;;;;5107252;27;20190;-31
2023/05/28 08:30:37;;;;;;;9.45;4.80;;;21.80;99.90;;;;;;5116592;27;20195;-32
2023/05/28 08:33:13;;;;;;;8.07;4.20;;;22.00;99.90;;;;;;5099398;27;20211;-31
2023/05/28 08:35:39;;;;;;;5.93;4.47;;;22.20;99.90;;;;;;5097270;27;20195;-31
2023/05/28 08:38:07;;;;;;;8.23;4.22;;;22.30;99.90;;;;;;5098819;28;20206;-31
2023/05/28 08:40:52;;;;;;;9.73;4.25;;;22.40;99.90;;;;;;5095355;27;20201;-32
2023/05/28 08:43:19;;;;;;;7.45;4.40;;;22.60;99.90;;;;;;5098808;28;20187;-31
2023/05/28 08:45:46;;;;;;;8.38;4.55;;;22.70;99.90;;;;;;5107175;27;20270;-31
2023/05/28 08:48:14;;;;;;;7.88;4.60;;;22.80;99.90;;;;;;5100041;27;20201;-31
2023/05/28 08:50:50;;;;;;;7.35;4.32;;;22.90;99.90;;;;;;5092330;27;20271;-34
2023/05/28 08:53:24;;;;;;;8.60;4.35;;;23.00;99.90;;;;;;5095339;27;20205;-34
2023/05/28 08:55:51;;;;;;;7.85;4.03;;;23.30;99.90;;;;;;5088777;27;20214;-34
2023/05/28 08:58:21;;;;;;;6.70;3.78;;;23.40;99.90;;;;;;5103809;28;20176;-34
2023/05/28 09:00:51;;;;;;;6.40;4.00;;;23.60;99.90;;;;;;5103944;27;20178;-33
2023/05/28 09:03:25;;;;;;;7.32;4.50;;;23.80;99.90;;;;;;5128068;27;20235;-33
2023/05/28 09:05:57;;;;;;;8.93;4.68;;;24.00;99.90;;;;;;5094111;27;20180;-33
2023/05/28 09:08:24;;;;;;;8.60;4.63;;;24.20;99.90;;;;;;5108082;28;20187;-34
2023/05/28 09:10:50;;;;;;;8.98;4.80;;;24.00;99.90;;;;;;5114230;27;20191;-33
2023/05/28 09:13:20;;;;;;;6.93;4.22;;;23.90;99.90;;;;;;5104309;28;20196;-34
2023/05/28 09:15:51;;;;;;;7.35;4.20;;;24.00;99.90;;;;;;5103247;27;20234;-34
2023/05/28 09:18:21;;;;;;;9.35;4.03;;;24.10;99.90;;;;;;5106133;28;20175;-34
2023/05/28 09:20:51;;;;;;;6.85;3.92;;;24.30;99.90;;;;;;5101142;27;20180;-35
2023/05/28 09:23:21;;;;;;;7.65;4.25;;;24.50;99.90;;;;;;5090053;28;20255;-32
2023/05/28 09:25:51;;;;;;;8.38;4.07;;;24.60;99.90;;;;;;5123760;27;20192;-32
2023/05/28 09:28:27;;;;;;;9.23;4.25;;;24.70;99.90;;;;;;5104514;28;20191;-31
2023/05/28 09:30:55;;;;;;;8.77;4.22;;;24.60;99.90;;;;;;5098260;27;20218;-32
2023/05/28 09:33:20;;;;;;;6.97;3.85;;;24.70;99.90;;;;;;5115120;27;20227;-32
2023/05/28 09:36:01;;;;;;;11.13;4.78;;;24.80;99.90;;;;;;5114661;27;20242;-32
2023/05/28 09:38:42;;;;;;;5.15;3.80;;;24.70;99.90;;;;;;5103471;27;20179;-31
2023/05/28 09:41:24;;;;;;;9.88;4.00;;;24.70;99.90;;;;;;5103071;27;20179;-32
2023/05/28 09:44:05;;;;;;;7.53;3.83;;;24.90;99.90;;;;;;5114479;27;20199;-32
2023/05/28 09:46:38;;;;;;;5.93;3.83;;;25.00;99.90;;;;;;5120218;27;20191;-33
2023/05/28 09:49:05;;;;;;;6.65;4.15;;;25.10;99.90;;;;;;5130410;27;20190;-31
2023/05/28 09:51:32;;;;;;;5.68;3.92;;;25.20;99.90;;;;;;5108888;27;20186;-32
2023/05/28 09:54:02;;;;;;;7.53;3.65;;;25.30;99.90;;;;;;5123258;27;20207;-32
2023/05/28 09:56:33;;;;;;;6.70;3.85;;;25.40;99.90;;;;;;5139447;27;20198;-31
2023/05/28 09:59:06;;;;;;;7.43;4.20;;;25.50;99.90;;;;;;5105841;27;20179;-31
2023/05/28 10:01:54;;;;;;;9.75;4.10;;;25.40;99.90;;;;;;5098417;28;20176;-32
2023/05/28 10:04:29;;;;;;;6.57;3.83;;;25.60;99.90;;;;;;5093022;28;20327;-32
2023/05/28 10:06:56;;;;;;;6.60;3.90;;;25.60;99.90;;;;;;5114290;27;20175;-32
2023/05/28 10:09:23;;;;;;;6.88;3.88;;;25.80;99.90;;;;;;5094554;27;20202;-32
2023/05/28 10:12:01;;;;;;;8.20;4.18;;;26.00;99.90;;;;;;5086867;27;20263;-31
2023/05/28 10:14:27;;;;;;;8.15;3.63;;;26.00;99.90;;;;;;5109052;27;20227;-31
2023/05/28 10:16:53;;;;;;;5.10;4.00;;;26.00;99.90;;;;;;5096862;27;20211;-31
2023/05/28 10:19:20;;;;;;;6.90;4.07;;;26.20;99.90;;;;;;5094179;28;20187;-32
2023/05/28 10:21:46;;;;;;;7.65;3.58;;;26.40;99.90;;;;;;5116973;27;20187;-31
2023/05/28 10:24:12;;;;;;;8.23;4.40;;;26.50;99.90;;;;;;5101607;28;20211;-32
2023/05/28 10:26:39;;;;;;;6.93;4.32;;;26.40;99.90;;;;;;5095439;27;20187;-32
2023/05/28 10:29:07;;;;;;;5.85;3.90;;;26.60;99.90;;;;;;5115603;27;20179;-32
2023/05/28 10:31:33;;;;;;;7.22;3.90;;;26.70;99.90;;;;;;5100092;28;20227;-32
2023/05/28 10:33:59;;;;;;;6.15;3.78;;;26.50;99.90;;;;;;5102743;27;20196;-32
2023/05/28 10:36:24;;;;;;;7.63;3.88;;;26.60;99.90;;;;;;5114521;27;20207;-32
2023/05/28 10:38:50;;;;;;;8.70;3.90;;;26.70;99.90;;;;;;5096066;27;20191;-33
2023/05/28 10:41:24;;;;;;;6.78;4.07;;;26.60;99.90;;;;;;5093990;28;20187;-33
2023/05/28 10:43:52;;;;;;;7.90;3.75;;;26.50;99.90;;;;;;5096897;27;20199;-33
2023/05/28 10:46:20;;;;;;;5.07;3.42;;;26.60;99.90;;;;;;5092815;28;20639;-33
2023/05/28 10:49:18;;;;;;;6.63;4.00;;;26.80;99.90;;;;;;5092589;27;20180;-33
2023/05/28 10:51:49;;;;;;;8.10;4.13;;;27.10;99.90;;;;;;5095288;27;20273;-33
2023/05/28 10:54:45;;;;;;;8.55;4.30;;;27.10;99.90;;;;;;5106670;27;20203;-33
2023/05/28 10:57:21;;;;;;;6.43;3.92;;;27.10;99.90;;;;;;5082307;27;20254;-33
2023/05/28 11:00:00;;;;;;;6.75;4.22;;;27.20;99.90;;;;;;5096671;27;20205;-33
2023/05/28 11:02:28;;;;;;;6.68;3.92;;;27.20;99.90;;;;;;5103296;28;20219;-33
2023/05/28 11:04:56;;;;;;;9.98;4.40;;;27.50;99.90;;;;;;5117183;27;20203;-33
2023/05/28 11:07:35;;;;;;;10.23;3.80;;;27.60;99.90;;;;;;5145782;27;20183;-33
2023/05/28 11:10:03;;;;;;;7.63;4.20;;;27.70;99.90;;;;;;5095957;27;20289;-33
2023/05/28 11:12:31;;;;;;;6.25;3.83;;;27.60;99.90;;;;;;5102859;28;20175;-33
2023/05/28 11:14:57;;;;;;;7.00;4.00;;;27.60;99.90;;;;;;5093246;27;20212;-32
2023/05/28 11:17:23;;;;;;;7.35;3.97;;;26.90;99.90;;;;;;5094459;28;20211;-33
2023/05/28 11:19:51;;;;;;;6.80;4.18;;;27.10;99.90;;;;;;5094571;27;20186;-32
2023/05/28 11:22:18;;;;;;;8.30;4.13;;;27.40;99.90;;;;;;5080344;28;20180;-33
2023/05/28 11:25:00;;;;;;;8.13;4.13;;;27.70;99.90;;;;;;5102564;27;20417;-33
2023/05/28 11:27:31;;;;;;;8.02;3.53;;;27.90;99.90;;;;;;5088828;28;20202;-33
2023/05/28 11:29:59;;;;;;;6.38;3.90;;;28.10;99.90;;;;;;5094632;27;20245;-33
2023/05/28 11:32:28;;;;;;;6.13;3.92;;;28.20;99.90;;;;;;5100537;27;20225;-32
2023/05/28 11:34:55;;;;;;;6.32;3.65;;;28.10;99.90;;;;;;5093905;27;20208;-32
2023/05/28 11:37:32;;;;;;;7.47;4.07;;;28.10;99.90;;;;;;5091301;27;20220;-33
2023/05/28 11:39:59;;;;;;;8.40;4.20;;;28.00;99.90;;;;;;5095088;27;20232;-33
2023/05/28 11:42:28;;;;;;;5.88;3.83;;;27.80;99.90;;;;;;5120516;27;20184;-33
2023/05/28 11:44:53;;;;;;;6.43;4.13;;;27.80;99.90;;;;;;5077314;27;20199;-32
2023/05/28 11:47:20;;;;;;;7.75;4.32;;;28.00;99.90;;;;;;5090954;27;20212;-33
2023/05/28 11:49:46;;;;;;;6.35;4.38;;;27.90;99.90;;;;;;5093367;27;20646;-32
2023/05/28 11:52:20;;;;;;;5.55;4.00;;;28.10;99.90;;;;;;5093582;28;20252;-33
2023/05/28 11:54:54;;;;;;;5.07;3.83;;;28.20;99.10;;;;;;5101827;27;20203;-33
2023/05/28 11:57:25;;;;;;;5.65;3.72;;;28.30;97.90;;;;;;5090620;27;20206;-32
2023/05/28 12:00:00;;;;;;;7.90;3.85;;;28.20;97.20;;;;;;5093989;27;20190;-33
2023/05/28 12:02:26;;;;;;;6.72;3.70;;;28.20;97.60;;;;;;5084802;28;20690;-33
2023/05/28 12:04:59;;;;;;;6.72;3.90;;;28.30;97.90;;;;;;5101529;27;20327;-32
2023/05/28 12:07:31;;;;;;;6.68;4.05;;;28.30;98.00;;;;;;5082567;27;20179;-32
2023/05/28 12:10:08;;;;;;;5.30;3.47;;;28.40;98.80;;;;;;5128695;27;20325;-33
2023/05/28 12:12:39;;;;;;;6.90;3.72;;;28.50;97.60;;;;;;5092754;27;20189;-33
2023/05/28 12:15:06;;;;;;;6.82;3.83;;;28.60;97.70;;;;;;5105344;27;20218;-33
2023/05/28 12:17:37;;;;;;;6.32;3.83;;;28.70;96.50;;;;;;5098228;28;20203;-33
2023/05/28 12:20:27;;;;;;;7.22;3.95;;;28.70;97.00;;;;;;5092987;27;20180;-33
2023/05/28 12:23:06;;;;;;;6.45;4.13;;;28.70;97.10;;;;;;5087493;27;20186;-32
2023/05/28 12:25:46;;;;;;;6.28;3.65;;;28.70;95.50;;;;;;5119866;27;20191;-32
2023/05/28 12:28:14;;;;;;;4.43;3.60;;;28.70;97.70;;;;;;5089263;27;20183;-33
2023/05/28 12:30:41;;;;;;;7.72;3.78;;;28.80;96.30;;;;;;5131746;27;20187;-33
2023/05/28 12:33:08;;;;;;;6.38;3.88;;;29.00;95.60;;;;;;5079961;27;20195;-33
2023/05/28 12:35:33;;;;;;;5.47;3.35;;;28.80;95.10;;;;;;5096376;27;20283;-32
2023/05/28 12:38:00;;;;;;;6.57;3.80;;;29.00;95.00;;;;;;5102645;27;20212;-32
2023/05/28 12:40:26;;;;;;;8.35;4.03;;;29.00;93.20;;;;;;5082135;27;20228;-33
2023/05/28 12:42:51;;;;;;;5.95;4.20;;;29.10;94.10;;;;;;5121912;27;20184;-32
2023/05/28 12:45:17;;;;;;;5.93;3.85;;;29.10;92.90;;;;;;5092832;28;20175;-33
2023/05/28 12:47:43;;;;;;;4.38;3.50;;;29.10;94.10;;;;;;5092817;27;20200;-33
2023/05/28 12:50:09;;;;;;;5.97;3.55;;;29.30;92.40;;;;;;5093017;28;20179;-33
2023/05/28 12:52:35;;;;;;;7.22;3.72;;;29.40;93.00;;;;;;5088517;28;20266;-33
2023/05/28 12:55:04;;;;;;;5.00;3.40;;;29.50;93.30;;;;;;5100788;27;20307;-33